Terminal Aerodrome Forecast
Issued by NWS

Home | Current Version | Previous Version | Text Only | Print | Product List | Glossary On
Versions: 1 2 3 4 5 6 7 8 9 10 11 12 13 14 15 16 17
000
FTUS46 KPDT 031523 AAB
TAFALW
TAF AMD
KALW 031523Z 0315/0412 20014KT P6SM SCT080 BKN120
     FM031800 23007KT P6SM SCT050 BKN100
     FM040400 13006KT P6SM SCT100=

USA.gov is the U.S. government's official web portal to all federal, state and local government web resources and services.